< < Back
Terminal Aerodrome Forecast


Current Version              Previous Versions:   1  2  3  4  5  6  7  8  9  

Terminal Aerodrome Forecast

496
FTUS42 KILM 012300
TAFFLO
TAF
KFLO 012330Z 0200/0224 18008KT P6SM VCTS SCT040CB SCT100
     FM020200 21005KT P6SM FEW015 SCT050
      TEMPO 0208/0212 4SM BR SCT010
     FM021400 25005KT P6SM SCT025
     FM021800 19011KT P6SM VCSH SCT050=



Latest METAR

961
SAUS70 KWBC 020100
MTRFLO
METAR KFLO 020053Z 16007KT 10SM -RA FEW075 FEW090 SCT110 28/22 A3006 RMK
AO2 RAB39 SLP175 P0000 T02780222 $


USA.gov is the U.S. government's official web portal to all federal, state and local government web resources and services.